Time;durP1;ratioP1;P1;durP2;ratioP2;P2;SDS_P1;SDS_P2;PMS_P1;PMS_P2;Temp;Humidity;BMP_temperature;BMP_pressure;BME280_temperature;BME280_humidity;BME280_pressure;Samples;Min_cycle;Max_cycle;Signal;HPM_P1;HPM_P2
2023/08/20 00:01:14;;;;;;;;;;;;;;;22.68;92.59;99757.38;5010637;28;1268;-65
2023/08/20 00:03:43;;;;;;;;;;;;;;;22.71;91.88;99760.00;5011920;28;896;-64
2023/08/20 00:06:10;;;;;;;;;;;;;;;22.73;91.53;99751.84;5011812;28;852;-64
2023/08/20 00:08:36;;;;;;;;;;;;;;;22.78;91.36;99753.19;5011958;28;871;-64
2023/08/20 00:11:04;;;;;;;;;;;;;;;22.78;91.08;99751.16;5011856;28;891;-64
2023/08/20 00:13:31;;;;;;;;;;;;;;;22.77;90.80;99743.97;5011887;28;883;-65
2023/08/20 00:15:57;;;;;;;;;;;;;;;22.82;90.12;99742.50;5011747;28;1951;-65
2023/08/20 00:18:23;;;;;;;;;;;;;;;22.84;89.66;99742.78;5011858;28;824;-65
2023/08/20 00:20:50;;;;;;;;;;;;;;;22.87;89.25;99732.59;5011704;28;808;-67
2023/08/20 00:23:17;;;;;;;;;;;;;;;22.88;88.84;99737.75;5010495;28;1439;-64
2023/08/20 00:25:44;;;;;;;;;;;;;;;22.86;88.78;99733.88;5011761;28;840;-64
2023/08/20 00:28:11;;;;;;;;;;;;;;;22.85;88.53;99738.69;5011602;28;852;-64
2023/08/20 00:30:38;;;;;;;;;;;;;;;22.84;88.48;99737.94;5011741;28;844;-69
2023/08/20 00:33:05;;;;;;;;;;;;;;;22.85;88.27;99738.69;5011616;28;839;-65
2023/08/20 00:35:32;;;;;;;;;;;;;;;22.79;88.46;99735.03;5011625;28;1882;-65
2023/08/20 00:37:58;;;;;;;;;;;;;;;22.76;88.43;99736.00;5011952;28;855;-67
2023/08/20 00:40:26;;;;;;;;;;;;;;;22.77;87.98;99735.53;5011634;28;824;-64
2023/08/20 00:42:52;;;;;;;;;;;;;;;22.73;88.16;99732.13;5011924;28;953;-66
2023/08/20 00:45:19;;;;;;;;;;;;;;;22.74;87.82;99730.09;5011539;28;877;-64
2023/08/20 00:47:47;;;;;;;;;;;;;;;22.73;87.89;99729.31;5011592;28;840;-66
2023/08/20 00:50:14;;;;;;;;;;;;;;;22.72;87.54;99722.13;5011308;28;1356;-65
2023/08/20 00:52:41;;;;;;;;;;;;;;;22.71;87.31;99733.88;5015246;28;860;-65
2023/08/20 00:55:12;;;;;;;;;;;;;;;22.67;87.71;99727.69;5013683;28;1972;-68
2023/08/20 00:57:40;;;;;;;;;;;;;;;22.67;87.46;99728.44;5015010;28;817;-65
2023/08/20 01:00:08;;;;;;;;;;;;;;;22.65;87.30;99718.94;5015078;28;1263;-66
2023/08/20 01:02:35;;;;;;;;;;;;;;;22.69;87.21;99720.28;5015129;28;960;-66
2023/08/20 01:05:04;;;;;;;;;;;;;;;22.71;86.99;99720.56;5015216;28;859;-65
2023/08/20 01:07:52;;;;;;;;;;;;;;;22.68;87.09;99721.56;5014821;28;910;-67
2023/08/20 01:10:28;;;;;;;;;;;;;;;22.65;87.07;99716.88;5004412;28;1221;-66
2023/08/20 01:12:55;;;;;;;;;;;;;;;22.61;87.20;99717.09;5014757;28;919;-65
2023/08/20 01:15:23;;;;;;;;;;;;;;;22.68;86.40;99710.31;5014618;28;1882;-66
2023/08/20 01:17:51;;;;;;;;;;;;;;;22.76;86.00;99713.47;5014591;28;848;-65
2023/08/20 01:20:18;;;;;;;;;;;;;;;22.79;85.41;99718.13;4996983;28;1203;-68
2023/08/20 01:22:44;;;;;;;;;;;;;;;22.82;85.07;99709.47;5014546;28;911;-66
2023/08/20 01:25:11;;;;;;;;;;;;;;;22.81;84.51;99726.88;5014668;28;813;-66
2023/08/20 01:27:52;;;;;;;;;;;;;;;22.83;84.05;99715.91;5014338;28;874;-69
2023/08/20 01:30:19;;;;;;;;;;;;;;;22.87;83.57;99708.00;5014554;28;837;-65
2023/08/20 01:32:46;;;;;;;;;;;;;;;22.88;83.35;99718.00;5014484;28;836;-65
2023/08/20 01:35:13;;;;;;;;;;;;;;;22.86;83.53;99709.28;5014303;28;1894;-67
2023/08/20 01:37:40;;;;;;;;;;;;;;;22.88;82.93;99714.44;5014416;28;833;-66
2023/08/20 01:40:09;;;;;;;;;;;;;;;22.90;82.36;99712.66;5014244;28;836;-65
2023/08/20 01:42:36;;;;;;;;;;;;;;;22.91;82.57;99716.25;5014478;28;985;-65
2023/08/20 01:45:05;;;;;;;;;;;;;;;22.91;82.35;99719.06;5014148;28;828;-66
2023/08/20 01:47:32;;;;;;;;;;;;;;;22.90;82.56;99720.34;5014245;28;907;-65
2023/08/20 01:49:59;;;;;;;;;;;;;;;22.88;82.53;99715.19;5014220;28;1308;-66
2023/08/20 01:52:26;;;;;;;;;;;;;;;22.84;82.63;99723.06;5014361;28;836;-65
2023/08/20 01:54:56;;;;;;;;;;;;;;;22.83;82.74;99713.84;5013998;28;828;-66
2023/08/20 01:57:22;;;;;;;;;;;;;;;22.89;82.89;99715.97;5012525;28;1977;-64
2023/08/20 01:59:48;;;;;;;;;;;;;;;22.87;82.41;99710.03;5013847;28;859;-68
2023/08/20 02:02:15;;;;;;;;;;;;;;;22.89;82.33;99707.50;5013518;28;880;-66
2023/08/20 02:04:41;;;;;;;;;;;;;;;22.84;82.32;99712.56;5013788;28;919;-65
2023/08/20 02:07:08;;;;;;;;;;;;;;;22.78;83.17;99722.22;5013958;28;855;-65
2023/08/20 02:09:35;;;;;;;;;;;;;;;22.69;83.74;99716.69;5013640;28;906;-66
2023/08/20 02:12:02;;;;;;;;;;;;;;;22.63;84.19;99714.56;5013814;28;901;-65
2023/08/20 02:14:29;;;;;;;;;;;;;;;22.57;84.27;99710.88;5013690;28;911;-65
2023/08/20 02:16:55;;;;;;;;;;;;;;;22.54;84.42;99711.09;5013487;28;1894;-68
2023/08/20 02:19:21;;;;;;;;;;;;;;;22.51;84.56;99714.88;5012252;28;912;-64
2023/08/20 02:21:49;;;;;;;;;;;;;;;22.47;84.83;99711.47;5013525;28;825;-67
2023/08/20 02:24:15;;;;;;;;;;;;;;;22.49;84.42;99706.94;5013470;28;907;-66
2023/08/20 02:26:41;;;;;;;;;;;;;;;22.52;84.29;99705.94;5013294;28;837;-65
2023/08/20 02:29:08;;;;;;;;;;;;;;;22.57;83.52;99710.09;5013258;28;809;-65
2023/08/20 02:31:34;;;;;;;;;;;;;;;22.60;82.74;99720.41;5013383;28;825;-64
2023/08/20 02:34:01;;;;;;;;;;;;;;;22.58;82.97;99709.63;5013313;28;824;-66
2023/08/20 02:36:28;;;;;;;;;;;;;;;22.59;82.32;99725.25;5013215;28;1942;-68
2023/08/20 02:38:54;;;;;;;;;;;;;;;22.62;81.94;99718.66;5013107;28;872;-66
2023/08/20 02:41:21;;;;;;;;;;;;;;;22.62;82.29;99715.06;5013162;28;1043;-65
2023/08/20 02:43:48;;;;;;;;;;;;;;;22.66;81.73;99714.84;5013168;28;879;-66
2023/08/20 02:46:15;;;;;;;;;;;;;;;22.68;81.33;99707.47;5013099;28;851;-69
2023/08/20 02:48:41;;;;;;;;;;;;;;;22.70;80.97;99702.09;5012722;28;1154;-67
2023/08/20 02:51:09;;;;;;;;;;;;;;;22.70;81.00;99704.16;5012980;28;840;-66
2023/08/20 02:53:36;;;;;;;;;;;;;;;22.74;80.54;99710.38;5012956;28;835;-65
2023/08/20 02:56:03;;;;;;;;;;;;;;;22.74;80.20;99707.53;5012650;28;1914;-71
2023/08/20 02:58:30;;;;;;;;;;;;;;;22.73;80.16;99709.59;5012884;28;848;-66
2023/08/20 03:00:57;;;;;;;;;;;;;;;22.68;80.56;99710.31;5012784;28;927;-65
2023/08/20 03:03:24;;;;;;;;;;;;;;;22.63;80.87;99696.88;5011471;28;1194;-64
2023/08/20 03:05:50;;;;;;;;;;;;;;;22.61;81.33;99710.69;5012718;28;852;-66
2023/08/20 03:08:17;;;;;;;;;;;;;;;22.66;80.99;99707.19;5012764;28;891;-69
2023/08/20 03:10:43;;;;;;;;;;;;;;;22.66;80.97;99712.03;5012513;28;882;-67
2023/08/20 03:13:10;;;;;;;;;;;;;;;22.65;81.24;99710.50;5010564;28;1339;-66
2023/08/20 03:15:37;;;;;;;;;;;;;;;22.66;81.02;99709.22;5011115;28;1947;-68
2023/08/20 03:18:04;;;;;;;;;;;;;;;22.70;80.75;99713.38;5012501;28;805;-66
2023/08/20 03:20:31;;;;;;;;;;;;;;;22.65;81.10;99713.31;5012500;28;908;-65
2023/08/20 03:22:57;;;;;;;;;;;;;;;22.60;81.64;99709.16;5012330;28;864;-65
2023/08/20 03:25:24;;;;;;;;;;;;;;;22.56;81.89;99712.16;5012407;28;904;-67
2023/08/20 03:27:52;;;;;;;;;;;;;;;22.58;81.62;99709.63;5012392;28;817;-65
2023/08/20 03:30:18;;;;;;;;;;;;;;;22.55;82.07;99710.59;5012625;28;813;-65
2023/08/20 03:32:45;;;;;;;;;;;;;;;22.54;82.22;99711.84;5012720;28;828;-67
2023/08/20 03:35:11;;;;;;;;;;;;;;;22.55;82.31;99709.81;5012366;28;1939;-67
2023/08/20 03:37:38;;;;;;;;;;;;;;;22.58;81.85;99706.81;5011119;28;836;-65
2023/08/20 03:40:05;;;;;;;;;;;;;;;22.58;81.95;99711.66;5012411;28;844;-68
2023/08/20 03:42:31;;;;;;;;;;;;;;;22.61;81.55;99719.91;5012245;28;907;-66
2023/08/20 03:44:59;;;;;;;;;;;;;;;22.66;81.49;99712.81;5011010;28;1335;-65
2023/08/20 03:47:25;;;;;;;;;;;;;;;22.71;81.35;99722.63;5012293;28;1278;-65
2023/08/20 03:49:52;;;;;;;;;;;;;;;22.71;81.02;99719.81;5011904;28;1299;-67
2023/08/20 03:52:19;;;;;;;;;;;;;;;22.74;81.00;99719.59;5012153;28;1234;-68
2023/08/20 03:54:45;;;;;;;;;;;;;;;22.76;80.92;99714.25;5011949;28;906;-67
2023/08/20 03:57:12;;;;;;;;;;;;;;;22.82;80.58;99712.28;5011953;28;1918;-66
2023/08/20 03:59:39;;;;;;;;;;;;;;;22.85;80.27;99707.72;5012008;28;852;-65
2023/08/20 04:02:05;;;;;;;;;;;;;;;22.87;80.29;99710.81;5012054;28;828;-66
2023/08/20 04:04:32;;;;;;;;;;;;;;;22.93;80.03;99711.66;5011977;28;852;-69
2023/08/20 04:06:59;;;;;;;;;;;;;;;23.00;79.59;99708.50;5012045;28;915;-66
2023/08/20 04:09:25;;;;;;;;;;;;;;;23.10;78.92;99716.81;5011921;28;900;-65
2023/08/20 04:11:52;;;;;;;;;;;;;;;23.16;78.52;99712.78;5012202;28;836;-65
2023/08/20 04:14:19;;;;;;;;;;;;;;;23.20;77.96;99710.53;5011850;28;911;-65
2023/08/20 04:16:46;;;;;;;;;;;;;;;23.27;77.72;99714.97;5011780;28;1947;-67
2023/08/20 04:19:13;;;;;;;;;;;;;;;23.43;76.90;99708.78;5011903;28;976;-66
2023/08/20 04:21:40;;;;;;;;;;;;;;;23.53;75.71;99708.63;5011987;28;837;-68
2023/08/20 04:27:10;;;;;;;;;;;;;;;23.75;73.97;99705.31;5027079;28;762;-65
2023/08/20 04:29:37;;;;;;;;;;;;;;;23.85;73.62;99712.34;5034249;28;1383;-64
2023/08/20 04:32:03;;;;;;;;;;;;;;;23.91;73.20;99712.44;5035324;28;848;-70
2023/08/20 04:34:29;;;;;;;;;;;;;;;23.98;72.90;99709.94;5035329;28;892;-66
2023/08/20 04:36:56;;;;;;;;;;;;;;;24.02;72.79;99718.94;5035111;28;1990;-68
2023/08/20 04:39:22;;;;;;;;;;;;;;;24.12;72.17;99715.97;5035280;28;902;-69
2023/08/20 04:41:49;;;;;;;;;;;;;;;24.16;71.33;99720.13;5035174;28;1050;-66
2023/08/20 04:44:16;;;;;;;;;;;;;;;24.23;70.77;99713.25;5035127;28;826;-67
2023/08/20 04:46:43;;;;;;;;;;;;;;;24.32;70.46;99720.75;5035048;28;932;-67
2023/08/20 04:49:10;;;;;;;;;;;;;;;24.40;70.17;99719.81;5030216;28;1246;-68
2023/08/20 04:51:37;;;;;;;;;;;;;;;24.50;69.46;99714.03;4997613;28;814;-67
2023/08/20 04:54:04;;;;;;;;;;;;;;;24.58;69.00;99715.09;5015402;28;880;-65
2023/08/20 04:56:30;;;;;;;;;;;;;;;24.66;68.11;99719.00;5014954;28;1910;-68
2023/08/20 04:58:57;;;;;;;;;;;;;;;24.72;67.75;99719.06;5015122;28;887;-67
2023/08/20 05:01:24;;;;;;;;;;;;;;;24.84;67.57;99717.88;5014961;28;976;-67
2023/08/20 05:16:01;;;;;;;;;;;;;;;25.46;62.29;99716.16;5014590;28;1894;-64
2023/08/20 05:18:28;;;;;;;;;;;;;;;25.57;61.08;99711.84;5014602;28;825;-69
2023/08/20 05:20:55;;;;;;;;;;;;;;;25.61;60.26;99712.38;5014684;28;856;-68
2023/08/20 05:23:20;;;;;;;;;;;;;;;25.77;60.38;99722.94;5014471;28;907;-68
2023/08/20 05:25:47;;;;;;;;;;;;;;;25.85;59.11;99717.56;5014864;28;859;-66
2023/08/20 05:28:13;;;;;;;;;;;;;;;26.02;59.11;99726.91;5014902;28;788;-68
2023/08/20 05:30:40;;;;;;;;;;;;;;;26.10;58.28;99732.84;5014551;28;836;-67
2023/08/20 05:33:07;;;;;;;;;;;;;;;26.11;58.16;99737.22;5014853;28;879;-68
2023/08/20 05:35:34;;;;;;;;;;;;;;;26.19;57.76;99726.94;5014225;28;1981;-65
2023/08/20 05:38:00;;;;;;;;;;;;;;;26.35;56.78;99728.25;5013520;28;1260;-66
2023/08/20 05:40:27;;;;;;;;;;;;;;;26.42;55.95;99721.28;5014382;28;899;-67
2023/08/20 05:42:54;;;;;;;;;;;;;;;26.67;54.86;99720.28;5014588;28;920;-67
2023/08/20 05:45:21;;;;;;;;;;;;;;;27.13;52.99;99723.03;5014193;28;849;-66
2023/08/20 05:47:48;;;;;;;;;;;;;;;27.68;51.10;99716.38;5014440;28;844;-65
2023/08/20 05:50:14;;;;;;;;;;;;;;;28.03;49.89;99706.38;5013806;28;1225;-68
2023/08/20 05:52:41;;;;;;;;;;;;;;;27.88;49.10;99714.50;5014150;28;896;-73
2023/08/20 05:55:07;;;;;;;;;;;;;;;27.85;49.32;99712.69;5013946;28;892;-71
2023/08/20 06:09:47;;;;;;;;;;;;;;;28.04;48.69;99725.00;4996066;28;782;-66
2023/08/20 06:12:14;;;;;;;;;;;;;;;28.15;49.03;99723.38;4994044;28;857;-66
2023/08/20 06:14:40;;;;;;;;;;;;;;;28.37;48.18;99733.78;4994090;28;832;-66
2023/08/20 06:17:06;;;;;;;;;;;;;;;28.52;47.44;99731.38;4993887;28;1951;-67
2023/08/20 06:19:34;;;;;;;;;;;;;;;28.46;47.43;99733.44;4994079;28;904;-67
2023/08/20 06:22:00;;;;;;;;;;;;;;;28.34;46.94;99732.03;4993816;28;821;-68
2023/08/20 06:24:27;;;;;;;;;;;;;;;28.17;47.12;99730.06;4993884;28;860;-68
2023/08/20 06:26:54;;;;;;;;;;;;;;;28.19;46.43;99738.06;4993896;28;982;-67
2023/08/20 06:29:21;;;;;;;;;;;;;;;28.32;46.00;99741.06;4993873;28;829;-69
2023/08/20 06:31:48;;;;;;;;;;;;;;;28.48;45.70;99751.53;4993704;28;880;-67
2023/08/20 06:34:15;;;;;;;;;;;;;;;28.59;45.61;99750.72;4993663;28;817;-69
2023/08/20 06:36:42;;;;;;;;;;;;;;;28.73;44.94;99760.13;4993612;28;1910;-69
2023/08/20 06:39:09;;;;;;;;;;;;;;;28.97;44.24;99752.94;4993837;28;837;-68
2023/08/20 06:41:36;;;;;;;;;;;;;;;29.23;43.97;99760.97;4993659;28;1023;-70
2023/08/20 06:44:03;;;;;;;;;;;;;;;29.52;43.37;99753.66;4993570;28;931;-70
2023/08/20 06:46:29;;;;;;;;;;;;;;;29.51;42.47;99755.72;4993512;28;861;-73
2023/08/20 06:48:56;;;;;;;;;;;;;;;30.02;41.79;99757.94;4993329;28;1375;-66
2023/08/20 06:51:23;;;;;;;;;;;;;;;30.41;41.05;99764.41;4993259;28;857;-72
2023/08/20 06:53:49;;;;;;;;;;;;;;;31.16;39.47;99757.66;4993371;28;877;-69
2023/08/20 06:56:16;;;;;;;;;;;;;;;31.77;37.84;99765.53;4993236;28;1918;-68
2023/08/20 06:58:43;;;;;;;;;;;;;;;31.69;38.13;99759.75;4993184;28;845;-68
2023/08/20 07:01:09;;;;;;;;;;;;;;;32.03;38.10;99767.59;4993157;28;872;-67
2023/08/20 07:03:41;;;;;;;;;;;;;;;32.40;37.04;99771.44;4993095;28;841;-67
2023/08/20 07:06:14;;;;;;;;;;;;;;;32.73;36.59;99772.69;4991887;28;1181;-66
2023/08/20 07:08:41;;;;;;;;;;;;;;;33.15;35.59;99769.81;4993154;28;1208;-65
2023/08/20 07:11:07;;;;;;;;;;;;;;;32.98;35.43;99775.97;4993173;28;1350;-68
2023/08/20 07:13:34;;;;;;;;;;;;;;;32.47;36.04;99782.16;5012997;28;842;-66
2023/08/20 07:16:00;;;;;;;;;;;;;;;32.77;36.14;99780.94;5012571;28;1894;-66
2023/08/20 07:18:27;;;;;;;;;;;;;;;33.23;35.65;99775.59;5012776;28;839;-66
2023/08/20 07:20:54;;;;;;;;;;;;;;;33.53;35.49;99775.00;5012420;28;860;-70
2023/08/20 07:23:22;;;;;;;;;;;;;;;33.48;35.07;99765.25;5012413;28;817;-67
2023/08/20 07:25:51;;;;;;;;;;;;;;;34.02;34.40;99776.22;5012560;28;907;-70
2023/08/20 07:28:26;;;;;;;;;;;;;;;33.90;33.25;99776.53;5012423;28;844;-67
2023/08/20 07:30:53;;;;;;;;;;;;;;;33.75;32.72;99771.50;5012291;28;891;-68
2023/08/20 07:33:21;;;;;;;;;;;;;;;34.21;32.30;99770.19;5012359;28;840;-66
2023/08/20 07:35:48;;;;;;;;;;;;;;;34.52;31.38;99768.88;5012201;28;1898;-67
2023/08/20 07:38:15;;;;;;;;;;;;;;;34.70;31.47;99761.28;5012284;28;800;-66
2023/08/20 07:40:42;;;;;;;;;;;;;;;35.11;30.81;99772.91;5012202;28;895;-66
2023/08/20 07:43:09;;;;;;;;;;;;;;;35.55;30.36;99767.66;5012617;28;1024;-66
2023/08/20 07:45:37;;;;;;;;;;;;;;;35.58;30.17;99760.75;5012215;28;895;-65
2023/08/20 07:48:03;;;;;;;;;;;;;;;35.65;30.19;99761.34;5012083;28;884;-66
2023/08/20 07:50:30;;;;;;;;;;;;;;;35.71;29.51;99767.63;5011851;28;1274;-67
2023/08/20 07:52:57;;;;;;;;;;;;;;;35.68;29.94;99751.56;5012058;28;864;-66
2023/08/20 07:55:23;;;;;;;;;;;;;;;35.65;29.73;99749.84;5011968;28;1915;-68
2023/08/20 07:57:52;;;;;;;;;;;;;;;35.27;30.15;99742.88;5011986;28;840;-67
2023/08/20 08:00:19;;;;;;;;;;;;;;;35.05;30.52;99744.38;5010300;28;1447;-67
2023/08/20 08:02:46;;;;;;;;;;;;;;;35.00;30.88;99742.50;5011931;28;844;-65
2023/08/20 08:05:14;;;;;;;;;;;;;;;35.72;29.87;99731.78;5011957;28;978;-66
2023/08/20 08:07:40;;;;;;;;;;;;;;;35.46;29.95;99738.75;5011923;28;872;-67
2023/08/20 08:10:07;;;;;;;;;;;;;;;35.02;31.22;99736.94;5011912;28;831;-67
2023/08/20 08:12:34;;;;;;;;;;;;;;;35.71;30.50;99724.53;5011895;28;832;-66
2023/08/20 08:15:01;;;;;;;;;;;;;;;36.18;29.09;99711.44;5011863;28;907;-68
2023/08/20 08:17:27;;;;;;;;;;;;;;;35.57;30.41;99709.59;5011726;28;1878;-68
2023/08/20 08:19:55;;;;;;;;;;;;;;;35.39;30.77;99711.59;5011854;28;891;-69
2023/08/20 08:22:21;;;;;;;;;;;;;;;35.58;30.25;99716.88;5012033;28;869;-66
2023/08/20 08:24:48;;;;;;;;;;;;;;;35.91;29.67;99709.09;5011769;28;852;-66
2023/08/20 08:27:15;;;;;;;;;;;;;;;36.91;28.94;99716.97;5011839;28;824;-67
2023/08/20 08:29:41;;;;;;;;;;;;;;;37.36;28.37;99717.88;5010380;28;847;-67
2023/08/20 08:32:08;;;;;;;;;;;;;;;37.55;28.02;99702.84;5011762;28;899;-66
2023/08/20 08:34:35;;;;;;;;;;;;;;;37.66;27.88;99710.25;5011611;28;1017;-69
2023/08/20 08:37:01;;;;;;;;;;;;;;;37.25;27.92;99706.09;5011629;28;1890;-69
2023/08/20 08:39:28;;;;;;;;;;;;;;;36.44;29.06;99717.97;5011925;28;833;-67
2023/08/20 08:42:01;;;;;;;;;;;;;;;36.21;29.27;99712.38;5011674;28;940;-66
2023/08/20 08:44:28;;;;;;;;;;;;;;;36.28;29.45;99700.81;5011695;28;896;-69
2023/08/20 08:46:54;;;;;;;;;;;;;;;36.56;29.49;99699.63;5011499;28;832;-69
2023/08/20 08:49:21;;;;;;;;;;;;;;;36.43;29.37;99699.94;5011506;28;1325;-68
2023/08/20 08:51:48;;;;;;;;;;;;;;;35.73;30.13;99695.97;5011558;28;872;-68
2023/08/20 08:54:15;;;;;;;;;;;;;;;35.97;29.81;99708.84;5011425;28;840;-68
2023/08/20 08:56:42;;;;;;;;;;;;;;;36.31;29.82;99702.50;5011421;28;1917;-68
2023/08/20 08:59:09;;;;;;;;;;;;;;;36.55;29.73;99697.31;5011424;28;876;-66
2023/08/20 09:01:43;;;;;;;;;;;;;;;36.93;29.27;99699.88;5011476;28;848;-69
2023/08/20 09:04:10;;;;;;;;;;;;;;;36.21;29.81;99707.41;5011539;28;813;-69
2023/08/20 09:06:52;;;;;;;;;;;;;;;35.83;30.33;99696.09;5011888;28;1206;-69
2023/08/20 09:09:19;;;;;;;;;;;;;;;35.20;30.91;99691.16;5011598;28;844;-69
2023/08/20 09:11:47;;;;;;;;;;;;;;;35.30;31.33;99692.09;5012279;28;812;-66
2023/08/20 09:14:24;;;;;;;;;;;;;;;35.89;30.53;99685.91;5014778;28;861;-67
2023/08/20 09:16:54;;;;;;;;;;;;;;;36.01;30.15;99694.06;5013445;28;1894;-68
2023/08/20 09:19:21;;;;;;;;;;;;;;;36.22;30.07;99694.53;5013410;28;1291;-68
2023/08/20 09:21:48;;;;;;;;;;;;;;;36.09;30.16;99691.91;5015033;28;856;-67
2023/08/20 09:24:15;;;;;;;;;;;;;;;36.05;30.16;99686.56;5014799;28;958;-70
2023/08/20 09:26:45;;;;;;;;;;;;;;;36.08;30.19;99678.88;5014551;28;853;-67
2023/08/20 09:29:15;;;;;;;;;;;;;;;35.80;30.63;99675.03;5014777;28;841;-69
2023/08/20 09:31:43;;;;;;;;;;;;;;;35.48;30.99;99692.97;5014460;28;895;-70
2023/08/20 09:34:12;;;;;;;;;;;;;;;35.33;31.38;99679.44;5013194;28;1209;-74
2023/08/20 09:36:39;;;;;;;;;;;;;;;35.24;31.24;99677.94;5014497;28;1941;-69
2023/08/20 09:39:06;;;;;;;;;;;;;;;35.36;31.21;99676.19;5014352;28;836;-67
2023/08/20 09:41:33;;;;;;;;;;;;;;;35.23;31.29;99676.41;5014371;28;1020;-70
2023/08/20 09:43:59;;;;;;;;;;;;;;;35.05;31.64;99677.59;5014263;28;824;-69
2023/08/20 09:46:27;;;;;;;;;;;;;;;35.11;31.59;99681.78;5014167;28;844;-68
2023/08/20 09:48:58;;;;;;;;;;;;;;;35.14;31.60;99659.78;5013902;28;1495;-71
2023/08/20 09:51:27;;;;;;;;;;;;;;;35.21;31.34;99670.50;5014238;28;1299;-70
2023/08/20 09:54:17;;;;;;;;;;;;;;;35.12;31.43;99671.84;5014206;28;836;-68
2023/08/20 09:56:44;;;;;;;;;;;;;;;35.34;31.16;99658.00;5006192;28;1965;-68
2023/08/20 09:59:10;;;;;;;;;;;;;;;35.40;31.45;99669.25;5014001;28;829;-66
2023/08/20 10:01:38;;;;;;;;;;;;;;;35.89;31.04;99654.28;5014021;28;848;-69
2023/08/20 10:04:05;;;;;;;;;;;;;;;35.99;30.85;99648.66;5013865;28;911;-69
2023/08/20 10:06:32;;;;;;;;;;;;;;;36.12;30.34;99651.22;5013927;28;966;-66
2023/08/20 10:09:00;;;;;;;;;;;;;;;36.48;30.48;99652.13;5013790;28;860;-67
2023/08/20 10:45:43;;;;;;;;;;;;;;;36.93;27.58;99622.13;4974222;28;817;-58
2023/08/20 10:48:11;;;;;;;;;;;;;;;36.87;26.68;99607.25;4974107;28;907;-59
2023/08/20 10:50:37;;;;;;;;;;;;;;;36.50;26.19;99615.63;4973995;28;968;-57
2023/08/20 10:53:03;;;;;;;;;;;;;;;36.64;26.84;99618.22;4974015;28;809;-57
2023/08/20 10:55:30;;;;;;;;;;;;;;;36.43;26.89;99613.59;4973969;28;1977;-58
2023/08/20 10:57:59;;;;;;;;;;;;;;;37.13;25.85;99602.16;4973867;28;882;-58
2023/08/20 11:00:28;;;;;;;;;;;;;;;37.93;24.74;99599.88;4973924;28;883;-57
2023/08/20 11:02:53;;;;;;;;;;;;;;;38.08;24.02;99605.44;4973804;28;840;-57
2023/08/20 11:15:02;;;;;;;;;;;;;;;38.84;23.82;99596.78;4988938;28;663;-59
2023/08/20 11:17:29;;;;;;;;;;;;;;;38.82;23.73;99595.88;4992920;28;1954;-58
2023/08/20 11:19:56;;;;;;;;;;;;;;;39.13;23.18;99596.78;4992914;28;825;-57
2023/08/20 11:22:23;;;;;;;;;;;;;;;39.33;22.60;99568.63;4993081;28;864;-58
2023/08/20 11:24:50;;;;;;;;;;;;;;;39.97;22.28;99585.47;4992796;28;846;-58
2023/08/20 11:27:16;;;;;;;;;;;;;;;39.91;21.50;99590.84;4993139;28;820;-59
2023/08/20 11:29:44;;;;;;;;;;;;;;;39.88;22.04;99574.72;4992684;28;857;-58
2023/08/20 11:32:11;;;;;;;;;;;;;;;40.24;22.00;99569.94;4992731;28;871;-58
2023/08/20 11:34:38;;;;;;;;;;;;;;;39.95;22.21;99562.19;4984082;28;837;-58
2023/08/20 11:37:05;;;;;;;;;;;;;;;38.68;23.46;99584.00;4992642;28;1885;-58
2023/08/20 11:39:31;;;;;;;;;;;;;;;37.65;24.43;99578.22;4992597;28;876;-58
2023/08/20 11:41:58;;;;;;;;;;;;;;;37.63;24.76;99583.81;4992648;28;824;-58
2023/08/20 11:44:26;;;;;;;;;;;;;;;38.33;23.69;99573.47;5004775;28;1357;-57
2023/08/20 11:46:52;;;;;;;;;;;;;;;38.67;23.13;99571.72;5012055;28;920;-58
2023/08/20 11:49:26;;;;;;;;;;;;;;;38.97;22.81;99552.25;5012163;28;847;-58
2023/08/20 11:51:55;;;;;;;;;;;;;;;39.38;22.43;99558.09;5012087;28;895;-57
2023/08/20 11:54:22;;;;;;;;;;;;;;;39.34;22.19;99555.66;5031881;28;825;-57
2023/08/20 11:56:49;;;;;;;;;;;;;;;40.07;21.26;99547.03;5031758;28;1973;-59
2023/08/20 11:59:17;;;;;;;;;;;;;;;40.60;20.70;99562.25;5031717;28;876;-59
2023/08/20 12:01:49;;;;;;;;;;;;;;;40.39;20.02;99557.22;5031734;28;888;-58
2023/08/20 12:04:16;;;;;;;;;;;;;;;39.51;20.90;99546.06;5031630;28;942;-57
2023/08/20 12:06:42;;;;;;;;;;;;;;;39.11;21.43;99561.94;5031635;28;1011;-58
2023/08/20 12:09:22;;;;;;;;;;;;;;;39.45;21.20;99562.22;5031664;28;816;-58
2023/08/20 12:11:50;;;;;;;;;;;;;;;40.11;20.72;99527.06;5031564;28;855;-57
2023/08/20 12:14:17;;;;;;;;;;;;;;;40.61;19.73;99543.50;5031561;28;836;-58
2023/08/20 12:16:43;;;;;;;;;;;;;;;40.35;19.67;99554.81;5031709;28;1953;-58
2023/08/20 12:19:09;;;;;;;;;;;;;;;39.94;18.96;99557.00;5031801;28;903;-60
2023/08/20 12:21:36;;;;;;;;;;;;;;;39.57;19.86;99546.50;5031523;28;836;-60
2023/08/20 12:24:04;;;;;;;;;;;;;;;39.67;19.30;99537.00;5031570;28;1010;-58
2023/08/20 12:26:31;;;;;;;;;;;;;;;39.76;19.20;99544.91;5031533;28;808;-58
2023/08/20 12:28:57;;;;;;;;;;;;;;;40.52;19.21;99544.31;5031457;28;883;-58
2023/08/20 12:31:24;;;;;;;;;;;;;;;40.56;18.27;99544.59;5031444;28;870;-59
2023/08/20 12:33:50;;;;;;;;;;;;;;;40.32;18.73;99532.88;5031755;28;859;-60
2023/08/20 12:36:16;;;;;;;;;;;;;;;40.93;17.89;99539.13;5031451;28;1949;-58
2023/08/20 12:38:43;;;;;;;;;;;;;;;40.99;17.50;99547.44;5031958;28;812;-58
2023/08/20 12:41:10;;;;;;;;;;;;;;;40.86;17.95;99545.88;5031357;28;982;-58
2023/08/20 12:43:36;;;;;;;;;;;;;;;41.74;17.97;99539.16;5010444;28;1393;-58
2023/08/20 12:46:03;;;;;;;;;;;;;;;42.22;16.94;99537.75;5012909;28;1228;-59
2023/08/20 12:48:30;;;;;;;;;;;;;;;42.08;17.19;99533.97;5015476;28;816;-58
2023/08/20 12:50:57;;;;;;;;;;;;;;;42.29;17.21;99530.91;5015502;28;780;-58
2023/08/20 12:53:23;;;;;;;;;;;;;;;42.06;15.48;99537.53;5015273;28;836;-59
2023/08/20 12:55:50;;;;;;;;;;;;;;;41.39;16.29;99540.63;5015090;28;1946;-59
2023/08/20 12:58:15;;;;;;;;;;;;;;;41.27;15.99;99531.16;5015223;28;852;-58
2023/08/20 13:00:42;;;;;;;;;;;;;;;41.38;15.79;99542.03;5015068;28;804;-59
2023/08/20 13:03:09;;;;;;;;;;;;;;;41.37;16.14;99528.91;5015119;28;816;-59
2023/08/20 13:05:36;;;;;;;;;;;;;;;41.61;15.82;99544.22;5014980;28;972;-58
2023/08/20 13:08:06;;;;;;;;;;;;;;;42.02;15.64;99526.44;5014926;28;887;-58
2023/08/20 13:10:36;;;;;;;;;;;;;;;42.41;14.96;99539.59;5015120;28;924;-58
2023/08/20 13:13:03;;;;;;;;;;;;;;;42.05;15.13;99541.81;5014871;28;851;-59
2023/08/20 13:15:30;;;;;;;;;;;;;;;41.68;15.17;99545.34;5014989;28;797;-60
2023/08/20 13:17:57;;;;;;;;;;;;;;;41.38;15.48;99538.38;5014746;28;1886;-58
2023/08/20 13:20:24;;;;;;;;;;;;;;;41.39;15.31;99542.78;5014746;28;899;-58
2023/08/20 13:22:52;;;;;;;;;;;;;;;40.95;16.14;99535.56;4997132;28;1213;-58
2023/08/20 13:25:18;;;;;;;;;;;;;;;41.54;16.41;99524.13;5014727;28;863;-58
2023/08/20 13:27:44;;;;;;;;;;;;;;;41.64;17.42;99527.69;4996981;28;1305;-58
2023/08/20 13:30:11;;;;;;;;;;;;;;;41.39;15.77;99531.91;5014597;28;856;-59
2023/08/20 13:32:38;;;;;;;;;;;;;;;41.53;15.86;99522.63;5014707;28;892;-59
2023/08/20 13:35:05;;;;;;;;;;;;;;;42.26;15.70;99516.91;5014489;28;959;-59
2023/08/20 13:37:31;;;;;;;;;;;;;;;42.22;16.57;99508.72;5014700;28;1890;-59
2023/08/20 13:39:59;;;;;;;;;;;;;;;41.26;18.43;99529.66;5014439;28;812;-59
2023/08/20 13:42:25;;;;;;;;;;;;;;;40.51;18.71;99537.03;5014543;28;909;-58
2023/08/20 13:44:52;;;;;;;;;;;;;;;40.65;19.27;99535.09;5014418;28;1238;-58
2023/08/20 13:47:18;;;;;;;;;;;;;;;41.13;18.94;99536.78;5034193;28;1207;-59
2023/08/20 13:49:44;;;;;;;;;;;;;;;40.25;19.16;99539.63;5016330;28;1275;-59
2023/08/20 13:52:11;;;;;;;;;;;;;;;39.80;19.36;99537.28;5033976;28;809;-59
2023/08/20 13:54:38;;;;;;;;;;;;;;;39.66;19.34;99532.63;5033969;28;848;-58
2023/08/20 13:57:04;;;;;;;;;;;;;;;39.15;19.66;99542.03;5033237;28;1899;-58
2023/08/20 13:59:31;;;;;;;;;;;;;;;39.13;19.80;99536.09;5033698;28;867;-58
2023/08/20 14:01:58;;;;;;;;;;;;;;;39.58;19.43;99527.00;5016031;28;1185;-58
2023/08/20 14:04:25;;;;;;;;;;;;;;;39.41;19.08;99539.56;5033623;28;816;-59
2023/08/20 14:06:51;;;;;;;;;;;;;;;38.99;19.54;99537.97;5033974;28;918;-58
2023/08/20 14:09:18;;;;;;;;;;;;;;;38.77;19.82;99555.16;5033484;28;808;-58
2023/08/20 14:11:45;;;;;;;;;;;;;;;38.52;19.76;99548.91;5033592;28;915;-58
2023/08/20 14:14:12;;;;;;;;;;;;;;;38.33;20.02;99553.25;5033481;28;820;-58
2023/08/20 14:16:38;;;;;;;;;;;;;;;38.20;19.94;99556.59;5033406;28;1948;-58